sensor_id;sensor_type;location;lat;lon;timestamp;P1;durP1;ratioP1;P2;durP2;ratioP2
16173;SDS011;14031;50.158;8.626;2023-05-10T00:00:22;0.77;;;0.33;;
16173;SDS011;14031;50.158;8.626;2023-05-10T00:02:49;1.50;;;0.60;;
16173;SDS011;14031;50.158;8.626;2023-05-10T00:05:15;1.90;;;0.40;;
16173;SDS011;14031;50.158;8.626;2023-05-10T00:07:43;0.90;;;0.40;;
16173;SDS011;14031;50.158;8.626;2023-05-10T00:10:10;0.50;;;0.50;;
16173;SDS011;14031;50.158;8.626;2023-05-10T00:12:37;1.30;;;0.47;;
16173;SDS011;14031;50.158;8.626;2023-05-10T00:15:04;0.20;;;0.20;;
16173;SDS011;14031;50.158;8.626;2023-05-10T00:17:32;1.80;;;0.37;;
16173;SDS011;14031;50.158;8.626;2023-05-10T00:19:59;3.90;;;0.50;;
16173;SDS011;14031;50.158;8.626;2023-05-10T00:22:26;0.30;;;0.30;;
16173;SDS011;14031;50.158;8.626;2023-05-10T00:24:54;0.60;;;0.60;;
16173;SDS011;14031;50.158;8.626;2023-05-10T00:27:20;0.70;;;0.70;;
16173;SDS011;14031;50.158;8.626;2023-05-10T00:29:47;2.73;;;0.70;;
16173;SDS011;14031;50.158;8.626;2023-05-10T00:32:14;1.90;;;0.60;;
16173;SDS011;14031;50.158;8.626;2023-05-10T00:34:41;0.53;;;0.53;;
16173;SDS011;14031;50.158;8.626;2023-05-10T00:37:08;0.60;;;0.60;;
16173;SDS011;14031;50.158;8.626;2023-05-10T00:39:35;0.53;;;0.53;;
16173;SDS011;14031;50.158;8.626;2023-05-10T00:42:03;0.67;;;0.67;;
16173;SDS011;14031;50.158;8.626;2023-05-10T00:44:30;0.50;;;0.50;;
16173;SDS011;14031;50.158;8.626;2023-05-10T00:46:57;2.87;;;0.60;;
16173;SDS011;14031;50.158;8.626;2023-05-10T00:49:24;0.47;;;0.47;;
16173;SDS011;14031;50.158;8.626;2023-05-10T00:51:51;0.60;;;0.60;;
16173;SDS011;14031;50.158;8.626;2023-05-10T00:54:18;1.20;;;0.63;;
16173;SDS011;14031;50.158;8.626;2023-05-10T00:56:45;0.60;;;0.60;;
16173;SDS011;14031;50.158;8.626;2023-05-10T00:59:15;0.80;;;0.60;;
16173;SDS011;14031;50.158;8.626;2023-05-10T01:01:42;3.27;;;0.60;;
16173;SDS011;14031;50.158;8.626;2023-05-10T01:04:10;0.93;;;0.67;;
16173;SDS011;14031;50.158;8.626;2023-05-10T01:06:37;2.17;;;0.70;;
16173;SDS011;14031;50.158;8.626;2023-05-10T01:15:19;0.60;;;0.60;;
16173;SDS011;14031;50.158;8.626;2023-05-10T01:17:47;1.07;;;0.60;;
16173;SDS011;14031;50.158;8.626;2023-05-10T01:20:15;0.40;;;0.40;;
16173;SDS011;14031;50.158;8.626;2023-05-10T01:22:47;0.67;;;0.60;;
16173;SDS011;14031;50.158;8.626;2023-05-10T01:25:40;0.60;;;0.60;;
16173;SDS011;14031;50.158;8.626;2023-05-10T01:34:38;0.63;;;0.63;;
16173;SDS011;14031;50.158;8.626;2023-05-10T01:37:15;0.60;;;0.60;;
16173;SDS011;14031;50.158;8.626;2023-05-10T01:39:48;0.53;;;0.53;;
16173;SDS011;14031;50.158;8.626;2023-05-10T01:42:24;0.60;;;0.60;;
16173;SDS011;14031;50.158;8.626;2023-05-10T01:44:57;0.70;;;0.70;;
16173;SDS011;14031;50.158;8.626;2023-05-10T01:47:34;0.60;;;0.60;;
16173;SDS011;14031;50.158;8.626;2023-05-10T01:50:06;2.13;;;0.80;;
16173;SDS011;14031;50.158;8.626;2023-05-10T01:52:41;2.53;;;0.70;;
16173;SDS011;14031;50.158;8.626;2023-05-10T01:55:13;1.23;;;0.60;;
16173;SDS011;14031;50.158;8.626;2023-05-10T01:57:42;0.80;;;0.80;;
16173;SDS011;14031;50.158;8.626;2023-05-10T02:00:11;0.83;;;0.83;;
16173;SDS011;14031;50.158;8.626;2023-05-10T02:02:39;0.40;;;0.40;;
16173;SDS011;14031;50.158;8.626;2023-05-10T02:05:12;0.70;;;0.70;;
16173;SDS011;14031;50.158;8.626;2023-05-10T02:07:40;0.90;;;0.60;;
16173;SDS011;14031;50.158;8.626;2023-05-10T02:10:08;0.70;;;0.70;;
16173;SDS011;14031;50.158;8.626;2023-05-10T02:12:37;2.33;;;0.60;;
16173;SDS011;14031;50.158;8.626;2023-05-10T02:15:08;0.40;;;0.40;;
16173;SDS011;14031;50.158;8.626;2023-05-10T02:17:37;0.57;;;0.57;;
16173;SDS011;14031;50.158;8.626;2023-05-10T02:20:07;0.50;;;0.50;;
16173;SDS011;14031;50.158;8.626;2023-05-10T02:22:37;0.57;;;0.57;;
16173;SDS011;14031;50.158;8.626;2023-05-10T02:25:06;0.87;;;0.50;;
16173;SDS011;14031;50.158;8.626;2023-05-10T02:27:34;0.50;;;0.50;;
16173;SDS011;14031;50.158;8.626;2023-05-10T02:30:04;0.60;;;0.60;;
16173;SDS011;14031;50.158;8.626;2023-05-10T02:32:32;0.40;;;0.40;;
16173;SDS011;14031;50.158;8.626;2023-05-10T02:35:01;0.40;;;0.40;;
16173;SDS011;14031;50.158;8.626;2023-05-10T02:37:28;0.57;;;0.57;;
16173;SDS011;14031;50.158;8.626;2023-05-10T02:39:58;2.13;;;0.53;;
16173;SDS011;14031;50.158;8.626;2023-05-10T02:42:28;1.07;;;0.60;;
16173;SDS011;14031;50.158;8.626;2023-05-10T02:44:59;1.37;;;0.80;;
16173;SDS011;14031;50.158;8.626;2023-05-10T02:47:28;0.80;;;0.80;;
16173;SDS011;14031;50.158;8.626;2023-05-10T02:49:55;1.57;;;0.70;;
16173;SDS011;14031;50.158;8.626;2023-05-10T02:52:23;0.80;;;0.80;;
16173;SDS011;14031;50.158;8.626;2023-05-10T02:54:52;0.60;;;0.60;;
16173;SDS011;14031;50.158;8.626;2023-05-10T02:57:25;0.40;;;0.40;;
16173;SDS011;14031;50.158;8.626;2023-05-10T02:59:54;0.70;;;0.70;;
16173;SDS011;14031;50.158;8.626;2023-05-10T03:02:21;0.73;;;0.70;;
16173;SDS011;14031;50.158;8.626;2023-05-10T03:04:48;3.13;;;0.70;;
16173;SDS011;14031;50.158;8.626;2023-05-10T03:07:15;2.60;;;0.90;;
16173;SDS011;14031;50.158;8.626;2023-05-10T03:09:44;2.67;;;0.60;;
16173;SDS011;14031;50.158;8.626;2023-05-10T03:12:11;1.07;;;0.77;;
16173;SDS011;14031;50.158;8.626;2023-05-10T03:14:49;0.93;;;0.57;;
16173;SDS011;14031;50.158;8.626;2023-05-10T03:17:23;0.93;;;0.93;;
16173;SDS011;14031;50.158;8.626;2023-05-10T03:19:56;1.43;;;0.70;;
16173;SDS011;14031;50.158;8.626;2023-05-10T03:22:25;1.73;;;0.70;;
16173;SDS011;14031;50.158;8.626;2023-05-10T03:24:56;0.80;;;0.80;;
16173;SDS011;14031;50.158;8.626;2023-05-10T03:27:24;0.77;;;0.77;;
16173;SDS011;14031;50.158;8.626;2023-05-10T03:29:54;0.90;;;0.77;;
16173;SDS011;14031;50.158;8.626;2023-05-10T03:32:23;0.70;;;0.70;;
16173;SDS011;14031;50.158;8.626;2023-05-10T03:34:50;1.60;;;0.70;;
16173;SDS011;14031;50.158;8.626;2023-05-10T03:37:16;1.13;;;0.60;;
16173;SDS011;14031;50.158;8.626;2023-05-10T03:39:43;2.80;;;0.90;;
16173;SDS011;14031;50.158;8.626;2023-05-10T03:42:10;0.83;;;0.83;;
16173;SDS011;14031;50.158;8.626;2023-05-10T03:44:37;2.00;;;0.90;;
16173;SDS011;14031;50.158;8.626;2023-05-10T03:47:06;0.80;;;0.80;;
16173;SDS011;14031;50.158;8.626;2023-05-10T03:49:32;1.57;;;0.87;;
16173;SDS011;14031;50.158;8.626;2023-05-10T03:51:59;0.80;;;0.80;;
16173;SDS011;14031;50.158;8.626;2023-05-10T03:54:26;0.70;;;0.70;;
16173;SDS011;14031;50.158;8.626;2023-05-10T03:56:53;0.63;;;0.63;;
16173;SDS011;14031;50.158;8.626;2023-05-10T03:59:19;0.60;;;0.60;;
16173;SDS011;14031;50.158;8.626;2023-05-10T04:01:46;2.20;;;0.60;;
16173;SDS011;14031;50.158;8.626;2023-05-10T04:04:14;0.90;;;0.80;;
16173;SDS011;14031;50.158;8.626;2023-05-10T04:06:43;3.57;;;1.10;;
16173;SDS011;14031;50.158;8.626;2023-05-10T04:09:10;1.80;;;0.77;;
16173;SDS011;14031;50.158;8.626;2023-05-10T04:11:37;0.60;;;0.60;;
16173;SDS011;14031;50.158;8.626;2023-05-10T04:14:03;1.53;;;1.40;;
16173;SDS011;14031;50.158;8.626;2023-05-10T04:16:31;3.43;;;0.57;;
16173;SDS011;14031;50.158;8.626;2023-05-10T04:18:57;3.30;;;0.77;;
16173;SDS011;14031;50.158;8.626;2023-05-10T04:21:26;1.93;;;0.70;;
16173;SDS011;14031;50.158;8.626;2023-05-10T04:23:52;1.47;;;0.70;;
16173;SDS011;14031;50.158;8.626;2023-05-10T04:26:19;1.77;;;0.90;;
16173;SDS011;14031;50.158;8.626;2023-05-10T04:28:47;2.30;;;0.80;;
16173;SDS011;14031;50.158;8.626;2023-05-10T04:31:13;1.00;;;1.00;;
16173;SDS011;14031;50.158;8.626;2023-05-10T04:33:40;0.90;;;0.90;;
16173;SDS011;14031;50.158;8.626;2023-05-10T04:36:07;0.93;;;0.93;;
16173;SDS011;14031;50.158;8.626;2023-05-10T04:38:35;1.03;;;1.00;;
16173;SDS011;14031;50.158;8.626;2023-05-10T04:41:05;1.70;;;1.00;;
16173;SDS011;14031;50.158;8.626;2023-05-10T04:43:32;0.90;;;0.90;;
16173;SDS011;14031;50.158;8.626;2023-05-10T04:45:59;1.87;;;1.00;;
16173;SDS011;14031;50.158;8.626;2023-05-10T04:48:26;2.53;;;0.90;;
16173;SDS011;14031;50.158;8.626;2023-05-10T04:50:53;3.50;;;1.23;;
16173;SDS011;14031;50.158;8.626;2023-05-10T04:53:29;1.20;;;1.17;;
16173;SDS011;14031;50.158;8.626;2023-05-10T04:55:57;2.43;;;1.30;;
16173;SDS011;14031;50.158;8.626;2023-05-10T04:58:24;1.17;;;1.10;;
16173;SDS011;14031;50.158;8.626;2023-05-10T05:00:51;1.33;;;1.30;;
16173;SDS011;14031;50.158;8.626;2023-05-10T05:03:17;1.20;;;1.10;;
16173;SDS011;14031;50.158;8.626;2023-05-10T05:05:44;1.97;;;1.10;;
16173;SDS011;14031;50.158;8.626;2023-05-10T05:08:11;1.63;;;1.27;;
16173;SDS011;14031;50.158;8.626;2023-05-10T05:10:38;1.30;;;1.30;;
16173;SDS011;14031;50.158;8.626;2023-05-10T05:13:06;1.70;;;1.30;;
16173;SDS011;14031;50.158;8.626;2023-05-10T05:15:33;1.40;;;1.40;;
16173;SDS011;14031;50.158;8.626;2023-05-10T05:17:59;1.50;;;1.40;;
16173;SDS011;14031;50.158;8.626;2023-05-10T05:20:26;1.80;;;1.30;;
16173;SDS011;14031;50.158;8.626;2023-05-10T05:22:53;1.67;;;1.57;;
16173;SDS011;14031;50.158;8.626;2023-05-10T05:25:19;1.30;;;1.30;;
16173;SDS011;14031;50.158;8.626;2023-05-10T05:27:46;1.37;;;1.37;;
16173;SDS011;14031;50.158;8.626;2023-05-10T05:30:14;3.73;;;1.50;;
16173;SDS011;14031;50.158;8.626;2023-05-10T05:32:41;1.50;;;1.40;;
16173;SDS011;14031;50.158;8.626;2023-05-10T05:35:08;1.40;;;1.40;;
16173;SDS011;14031;50.158;8.626;2023-05-10T05:37:36;2.93;;;1.60;;
16173;SDS011;14031;50.158;8.626;2023-05-10T05:40:02;2.17;;;1.50;;
16173;SDS011;14031;50.158;8.626;2023-05-10T05:42:30;1.20;;;1.20;;
16173;SDS011;14031;50.158;8.626;2023-05-10T05:44:57;1.43;;;1.33;;
16173;SDS011;14031;50.158;8.626;2023-05-10T05:47:25;2.17;;;1.50;;
16173;SDS011;14031;50.158;8.626;2023-05-10T05:49:52;1.50;;;1.50;;
16173;SDS011;14031;50.158;8.626;2023-05-10T05:52:20;1.30;;;1.30;;
16173;SDS011;14031;50.158;8.626;2023-05-10T05:54:47;1.70;;;1.60;;
16173;SDS011;14031;50.158;8.626;2023-05-10T05:57:14;1.63;;;1.57;;
16173;SDS011;14031;50.158;8.626;2023-05-10T05:59:40;1.73;;;1.60;;
16173;SDS011;14031;50.158;8.626;2023-05-10T06:02:08;1.80;;;1.70;;
16173;SDS011;14031;50.158;8.626;2023-05-10T06:04:37;1.60;;;1.50;;
16173;SDS011;14031;50.158;8.626;2023-05-10T06:07:04;1.70;;;1.60;;
16173;SDS011;14031;50.158;8.626;2023-05-10T06:09:30;2.00;;;1.80;;
16173;SDS011;14031;50.158;8.626;2023-05-10T06:11:57;1.60;;;1.60;;
16173;SDS011;14031;50.158;8.626;2023-05-10T06:14:24;1.77;;;1.70;;
16173;SDS011;14031;50.158;8.626;2023-05-10T06:16:51;2.40;;;2.00;;
16173;SDS011;14031;50.158;8.626;2023-05-10T06:19:17;1.83;;;1.63;;
16173;SDS011;14031;50.158;8.626;2023-05-10T06:21:45;2.00;;;1.63;;
16173;SDS011;14031;50.158;8.626;2023-05-10T06:24:12;2.10;;;2.00;;
16173;SDS011;14031;50.158;8.626;2023-05-10T06:26:39;3.07;;;1.40;;
16173;SDS011;14031;50.158;8.626;2023-05-10T06:29:05;1.70;;;1.60;;
16173;SDS011;14031;50.158;8.626;2023-05-10T06:31:32;4.00;;;1.80;;
16173;SDS011;14031;50.158;8.626;2023-05-10T06:33:59;2.60;;;1.70;;
16173;SDS011;14031;50.158;8.626;2023-05-10T06:36:26;1.80;;;1.40;;
16173;SDS011;14031;50.158;8.626;2023-05-10T06:38:54;2.83;;;1.80;;
16173;SDS011;14031;50.158;8.626;2023-05-10T06:41:20;3.93;;;1.87;;
16173;SDS011;14031;50.158;8.626;2023-05-10T06:43:47;1.73;;;1.60;;
16173;SDS011;14031;50.158;8.626;2023-05-10T06:46:14;2.63;;;1.80;;
16173;SDS011;14031;50.158;8.626;2023-05-10T06:48:41;1.63;;;1.53;;
16173;SDS011;14031;50.158;8.626;2023-05-10T06:51:07;3.00;;;1.77;;
16173;SDS011;14031;50.158;8.626;2023-05-10T06:53:34;2.00;;;1.90;;
16173;SDS011;14031;50.158;8.626;2023-05-10T06:56:03;2.10;;;2.00;;
16173;SDS011;14031;50.158;8.626;2023-05-10T06:58:30;2.67;;;2.00;;
16173;SDS011;14031;50.158;8.626;2023-05-10T07:01:01;2.08;;;1.98;;
16173;SDS011;14031;50.158;8.626;2023-05-10T07:03:28;4.88;;;2.10;;
16173;SDS011;14031;50.158;8.626;2023-05-10T07:05:59;1.88;;;1.77;;
16173;SDS011;14031;50.158;8.626;2023-05-10T07:08:28;1.95;;;1.85;;
16173;SDS011;14031;50.158;8.626;2023-05-10T07:10:58;6.63;;;1.70;;
16173;SDS011;14031;50.158;8.626;2023-05-10T07:13:27;1.80;;;1.70;;
16173;SDS011;14031;50.158;8.626;2023-05-10T07:15:54;2.63;;;2.00;;
16173;SDS011;14031;50.158;8.626;2023-05-10T07:18:21;2.35;;;2.15;;
16173;SDS011;14031;50.158;8.626;2023-05-10T07:20:47;2.67;;;1.80;;
16173;SDS011;14031;50.158;8.626;2023-05-10T07:23:14;3.42;;;1.60;;
16173;SDS011;14031;50.158;8.626;2023-05-10T07:25:44;2.17;;;1.98;;
16173;SDS011;14031;50.158;8.626;2023-05-10T07:28:11;1.67;;;1.58;;
16173;SDS011;14031;50.158;8.626;2023-05-10T07:30:39;1.70;;;1.60;;
16173;SDS011;14031;50.158;8.626;2023-05-10T07:33:06;3.83;;;1.90;;
16173;SDS011;14031;50.158;8.626;2023-05-10T07:35:34;1.75;;;1.65;;
16173;SDS011;14031;50.158;8.626;2023-05-10T07:38:01;2.33;;;1.63;;
16173;SDS011;14031;50.158;8.626;2023-05-10T07:40:28;3.00;;;1.92;;
16173;SDS011;14031;50.158;8.626;2023-05-10T07:42:55;2.55;;;1.60;;
16173;SDS011;14031;50.158;8.626;2023-05-10T07:45:22;2.00;;;1.83;;
16173;SDS011;14031;50.158;8.626;2023-05-10T07:47:51;1.85;;;1.75;;
16173;SDS011;14031;50.158;8.626;2023-05-10T07:50:17;2.03;;;1.92;;
16173;SDS011;14031;50.158;8.626;2023-05-10T07:52:46;1.88;;;1.77;;
16173;SDS011;14031;50.158;8.626;2023-05-10T07:55:12;2.15;;;1.95;;
16173;SDS011;14031;50.158;8.626;2023-05-10T07:57:39;3.10;;;1.80;;
16173;SDS011;14031;50.158;8.626;2023-05-10T08:00:06;1.95;;;1.80;;
16173;SDS011;14031;50.158;8.626;2023-05-10T08:02:34;1.65;;;1.55;;
16173;SDS011;14031;50.158;8.626;2023-05-10T08:05:03;3.35;;;1.80;;
16173;SDS011;14031;50.158;8.626;2023-05-10T08:07:30;2.45;;;2.20;;
16173;SDS011;14031;50.158;8.626;2023-05-10T08:09:57;3.85;;;1.70;;
16173;SDS011;14031;50.158;8.626;2023-05-10T08:12:24;1.92;;;1.80;;
16173;SDS011;14031;50.158;8.626;2023-05-10T08:14:50;3.78;;;1.80;;
16173;SDS011;14031;50.158;8.626;2023-05-10T08:17:17;4.53;;;1.60;;
16173;SDS011;14031;50.158;8.626;2023-05-10T08:19:44;1.80;;;1.70;;
16173;SDS011;14031;50.158;8.626;2023-05-10T08:22:12;1.55;;;1.40;;
16173;SDS011;14031;50.158;8.626;2023-05-10T08:24:39;2.47;;;1.75;;
16173;SDS011;14031;50.158;8.626;2023-05-10T08:27:07;3.95;;;2.08;;
16173;SDS011;14031;50.158;8.626;2023-05-10T08:29:34;2.58;;;1.73;;
16173;SDS011;14031;50.158;8.626;2023-05-10T08:32:01;3.05;;;1.52;;
16173;SDS011;14031;50.158;8.626;2023-05-10T08:34:27;1.50;;;1.40;;
16173;SDS011;14031;50.158;8.626;2023-05-10T08:36:56;3.25;;;1.63;;
16173;SDS011;14031;50.158;8.626;2023-05-10T08:39:24;4.22;;;1.60;;
16173;SDS011;14031;50.158;8.626;2023-05-10T08:41:51;2.28;;;1.30;;
16173;SDS011;14031;50.158;8.626;2023-05-10T08:44:20;1.67;;;1.48;;
16173;SDS011;14031;50.158;8.626;2023-05-10T08:46:46;2.97;;;1.70;;
16173;SDS011;14031;50.158;8.626;2023-05-10T08:49:19;2.70;;;1.80;;
16173;SDS011;14031;50.158;8.626;2023-05-10T08:51:47;3.38;;;1.50;;
16173;SDS011;14031;50.158;8.626;2023-05-10T08:54:17;1.98;;;1.77;;
16173;SDS011;14031;50.158;8.626;2023-05-10T08:56:46;2.25;;;1.60;;
16173;SDS011;14031;50.158;8.626;2023-05-10T08:59:13;1.60;;;1.50;;
16173;SDS011;14031;50.158;8.626;2023-05-10T09:01:40;1.60;;;1.55;;
16173;SDS011;14031;50.158;8.626;2023-05-10T09:04:10;2.78;;;2.25;;
16173;SDS011;14031;50.158;8.626;2023-05-10T09:06:38;2.50;;;1.70;;
16173;SDS011;14031;50.158;8.626;2023-05-10T09:09:05;3.58;;;1.88;;
16173;SDS011;14031;50.158;8.626;2023-05-10T09:11:32;3.25;;;1.90;;
16173;SDS011;14031;50.158;8.626;2023-05-10T09:14:01;1.50;;;1.40;;
16173;SDS011;14031;50.158;8.626;2023-05-10T09:16:28;2.30;;;1.90;;
16173;SDS011;14031;50.158;8.626;2023-05-10T09:18:55;3.67;;;1.52;;
16173;SDS011;14031;50.158;8.626;2023-05-10T09:21:22;1.45;;;1.35;;
16173;SDS011;14031;50.158;8.626;2023-05-10T09:23:49;1.17;;;1.17;;
16173;SDS011;14031;50.158;8.626;2023-05-10T09:26:21;1.50;;;1.45;;
16173;SDS011;14031;50.158;8.626;2023-05-10T09:28:51;1.65;;;1.55;;
16173;SDS011;14031;50.158;8.626;2023-05-10T09:31:21;4.53;;;1.60;;
16173;SDS011;14031;50.158;8.626;2023-05-10T09:33:50;2.67;;;1.90;;
16173;SDS011;14031;50.158;8.626;2023-05-10T09:36:17;3.60;;;1.80;;
16173;SDS011;14031;50.158;8.626;2023-05-10T09:38:47;2.03;;;1.85;;
16173;SDS011;14031;50.158;8.626;2023-05-10T09:41:15;1.50;;;1.50;;
16173;SDS011;14031;50.158;8.626;2023-05-10T09:43:43;3.08;;;2.05;;
16173;SDS011;14031;50.158;8.626;2023-05-10T09:46:09;2.10;;;2.00;;
16173;SDS011;14031;50.158;8.626;2023-05-10T09:48:41;1.73;;;1.55;;
16173;SDS011;14031;50.158;8.626;2023-05-10T09:51:09;3.33;;;2.20;;
16173;SDS011;14031;50.158;8.626;2023-05-10T09:53:37;2.22;;;1.55;;
16173;SDS011;14031;50.158;8.626;2023-05-10T09:56:04;1.35;;;1.25;;
16173;SDS011;14031;50.158;8.626;2023-05-10T09:58:32;2.83;;;1.35;;
16173;SDS011;14031;50.158;8.626;2023-05-10T10:01:03;1.33;;;1.25;;
16173;SDS011;14031;50.158;8.626;2023-05-10T10:03:30;1.85;;;1.20;;
16173;SDS011;14031;50.158;8.626;2023-05-10T10:05:58;1.35;;;1.33;;
16173;SDS011;14031;50.158;8.626;2023-05-10T10:08:25;1.20;;;1.20;;
16173;SDS011;14031;50.158;8.626;2023-05-10T10:10:51;1.10;;;1.00;;
16173;SDS011;14031;50.158;8.626;2023-05-10T10:13:18;1.40;;;1.30;;
16173;SDS011;14031;50.158;8.626;2023-05-10T10:15:45;1.58;;;1.27;;
16173;SDS011;14031;50.158;8.626;2023-05-10T10:18:15;1.50;;;1.40;;
16173;SDS011;14031;50.158;8.626;2023-05-10T10:20:43;1.40;;;1.23;;
16173;SDS011;14031;50.158;8.626;2023-05-10T10:23:12;1.42;;;1.33;;
16173;SDS011;14031;50.158;8.626;2023-05-10T10:25:38;1.88;;;1.73;;
16173;SDS011;14031;50.158;8.626;2023-05-10T10:28:11;2.47;;;1.50;;
16173;SDS011;14031;50.158;8.626;2023-05-10T10:30:50;1.40;;;1.40;;
16173;SDS011;14031;50.158;8.626;2023-05-10T10:36:14;2.05;;;1.67;;
16173;SDS011;14031;50.158;8.626;2023-05-10T10:38:58;1.92;;;1.77;;
16173;SDS011;14031;50.158;8.626;2023-05-10T10:41:27;1.83;;;1.45;;
16173;SDS011;14031;50.158;8.626;2023-05-10T10:47:00;2.03;;;1.38;;
16173;SDS011;14031;50.158;8.626;2023-05-10T10:50:02;2.38;;;1.33;;
16173;SDS011;14031;50.158;8.626;2023-05-10T10:52:31;2.85;;;0.90;;
16173;SDS011;14031;50.158;8.626;2023-05-10T10:55:01;0.80;;;0.65;;
16173;SDS011;14031;50.158;8.626;2023-05-10T10:57:34;1.02;;;0.63;;
16173;SDS011;14031;50.158;8.626;2023-05-10T11:00:19;1.55;;;0.93;;
16173;SDS011;14031;50.158;8.626;2023-05-10T11:02:48;0.60;;;0.60;;
16173;SDS011;14031;50.158;8.626;2023-05-10T11:05:23;2.90;;;0.50;;
16173;SDS011;14031;50.158;8.626;2023-05-10T11:07:51;1.20;;;0.65;;
16173;SDS011;14031;50.158;8.626;2023-05-10T11:10:20;0.75;;;0.75;;
16173;SDS011;14031;50.158;8.626;2023-05-10T11:12:50;1.58;;;0.60;;
16173;SDS011;14031;50.158;8.626;2023-05-10T11:15:19;1.73;;;0.57;;
16173;SDS011;14031;50.158;8.626;2023-05-10T11:17:47;2.88;;;0.80;;
16173;SDS011;14031;50.158;8.626;2023-05-10T11:20:17;1.02;;;0.70;;
16173;SDS011;14031;50.158;8.626;2023-05-10T11:22:50;1.00;;;0.93;;
16173;SDS011;14031;50.158;8.626;2023-05-10T11:25:18;1.02;;;0.63;;
16173;SDS011;14031;50.158;8.626;2023-05-10T11:27:47;0.70;;;0.70;;
16173;SDS011;14031;50.158;8.626;2023-05-10T11:30:14;2.60;;;0.90;;
16173;SDS011;14031;50.158;8.626;2023-05-10T11:32:41;0.60;;;0.60;;
16173;SDS011;14031;50.158;8.626;2023-05-10T11:35:08;3.40;;;1.83;;
16173;SDS011;14031;50.158;8.626;2023-05-10T11:37:35;3.60;;;1.17;;
16173;SDS011;14031;50.158;8.626;2023-05-10T11:40:06;0.88;;;0.70;;
16173;SDS011;14031;50.158;8.626;2023-05-10T11:42:35;1.00;;;0.70;;
16173;SDS011;14031;50.158;8.626;2023-05-10T11:45:06;0.52;;;0.50;;
16173;SDS011;14031;50.158;8.626;2023-05-10T11:47:33;0.80;;;0.68;;
16173;SDS011;14031;50.158;8.626;2023-05-10T11:50:02;0.63;;;0.63;;
16173;SDS011;14031;50.158;8.626;2023-05-10T11:52:29;0.60;;;0.60;;
16173;SDS011;14031;50.158;8.626;2023-05-10T11:55:02;0.60;;;0.60;;
16173;SDS011;14031;50.158;8.626;2023-05-10T11:57:29;0.60;;;0.60;;
16173;SDS011;14031;50.158;8.626;2023-05-10T11:59:56;1.95;;;0.60;;
16173;SDS011;14031;50.158;8.626;2023-05-10T12:02:25;0.77;;;0.70;;
16173;SDS011;14031;50.158;8.626;2023-05-10T12:04:52;0.68;;;0.68;;
16173;SDS011;14031;50.158;8.626;2023-05-10T12:07:19;4.72;;;0.77;;
16173;SDS011;14031;50.158;8.626;2023-05-10T12:12:38;1.00;;;0.98;;
16173;SDS011;14031;50.158;8.626;2023-05-10T12:15:07;1.95;;;0.60;;
16173;SDS011;14031;50.158;8.626;2023-05-10T12:17:39;1.58;;;0.60;;
16173;SDS011;14031;50.158;8.626;2023-05-10T12:20:15;2.70;;;0.60;;
16173;SDS011;14031;50.158;8.626;2023-05-10T12:22:43;0.55;;;0.50;;
16173;SDS011;14031;50.158;8.626;2023-05-10T12:25:11;0.70;;;0.70;;
16173;SDS011;14031;50.158;8.626;2023-05-10T12:27:38;1.90;;;0.65;;
16173;SDS011;14031;50.158;8.626;2023-05-10T12:30:05;2.15;;;0.80;;
16173;SDS011;14031;50.158;8.626;2023-05-10T12:32:41;0.52;;;0.52;;
16173;SDS011;14031;50.158;8.626;2023-05-10T12:35:09;1.45;;;0.60;;
16173;SDS011;14031;50.158;8.626;2023-05-10T12:37:36;0.75;;;0.70;;
16173;SDS011;14031;50.158;8.626;2023-05-10T12:40:08;0.52;;;0.52;;
16173;SDS011;14031;50.158;8.626;2023-05-10T12:42:36;2.25;;;0.60;;
16173;SDS011;14031;50.158;8.626;2023-05-10T12:45:04;1.63;;;0.70;;
16173;SDS011;14031;50.158;8.626;2023-05-10T12:47:32;0.47;;;0.47;;
16173;SDS011;14031;50.158;8.626;2023-05-10T12:50:00;0.82;;;0.60;;
16173;SDS011;14031;50.158;8.626;2023-05-10T12:52:28;0.70;;;0.70;;
16173;SDS011;14031;50.158;8.626;2023-05-10T12:54:56;0.80;;;0.50;;
16173;SDS011;14031;50.158;8.626;2023-05-10T12:57:23;2.38;;;0.65;;
16173;SDS011;14031;50.158;8.626;2023-05-10T12:59:50;2.20;;;0.70;;
16173;SDS011;14031;50.158;8.626;2023-05-10T13:02:17;0.60;;;0.52;;
16173;SDS011;14031;50.158;8.626;2023-05-10T13:04:45;0.68;;;0.68;;
16173;SDS011;14031;50.158;8.626;2023-05-10T13:07:13;0.60;;;0.60;;
16173;SDS011;14031;50.158;8.626;2023-05-10T13:09:40;1.85;;;0.60;;
16173;SDS011;14031;50.158;8.626;2023-05-10T13:12:07;0.52;;;0.52;;
16173;SDS011;14031;50.158;8.626;2023-05-10T13:14:33;0.93;;;0.60;;
16173;SDS011;14031;50.158;8.626;2023-05-10T13:17:00;1.92;;;0.50;;
16173;SDS011;14031;50.158;8.626;2023-05-10T13:19:27;0.60;;;0.60;;
16173;SDS011;14031;50.158;8.626;2023-05-10T13:21:54;2.17;;;0.90;;
16173;SDS011;14031;50.158;8.626;2023-05-10T13:24:22;0.55;;;0.55;;
16173;SDS011;14031;50.158;8.626;2023-05-10T13:26:49;0.60;;;0.60;;
16173;SDS011;14031;50.158;8.626;2023-05-10T13:29:16;2.30;;;0.73;;
16173;SDS011;14031;50.158;8.626;2023-05-10T13:31:43;0.75;;;0.70;;
16173;SDS011;14031;50.158;8.626;2023-05-10T13:34:10;1.48;;;1.15;;
16173;SDS011;14031;50.158;8.626;2023-05-10T13:36:37;0.75;;;0.50;;
16173;SDS011;14031;50.158;8.626;2023-05-10T13:39:03;3.05;;;0.80;;
16173;SDS011;14031;50.158;8.626;2023-05-10T13:41:32;1.35;;;0.68;;
16173;SDS011;14031;50.158;8.626;2023-05-10T13:43:59;0.85;;;0.55;;
16173;SDS011;14031;50.158;8.626;2023-05-10T13:46:25;0.52;;;0.52;;
16173;SDS011;14031;50.158;8.626;2023-05-10T13:48:52;0.95;;;0.70;;
16173;SDS011;14031;50.158;8.626;2023-05-10T13:51:19;0.65;;;0.40;;
16173;SDS011;14031;50.158;8.626;2023-05-10T13:53:46;0.70;;;0.70;;
16173;SDS011;14031;50.158;8.626;2023-05-10T13:56:13;1.20;;;0.45;;
16173;SDS011;14031;50.158;8.626;2023-05-10T13:58:41;0.88;;;0.60;;
16173;SDS011;14031;50.158;8.626;2023-05-10T14:01:08;0.50;;;0.50;;
16173;SDS011;14031;50.158;8.626;2023-05-10T14:03:35;0.93;;;0.50;;
16173;SDS011;14031;50.158;8.626;2023-05-10T14:06:02;0.50;;;0.50;;
16173;SDS011;14031;50.158;8.626;2023-05-10T14:08:28;3.97;;;0.70;;
16173;SDS011;14031;50.158;8.626;2023-05-10T14:10:55;0.70;;;0.70;;
16173;SDS011;14031;50.158;8.626;2023-05-10T14:13:23;0.68;;;0.50;;
16173;SDS011;14031;50.158;8.626;2023-05-10T14:15:52;0.90;;;0.52;;
16173;SDS011;14031;50.158;8.626;2023-05-10T14:18:19;0.50;;;0.50;;
16173;SDS011;14031;50.158;8.626;2023-05-10T14:20:46;1.23;;;0.50;;
16173;SDS011;14031;50.158;8.626;2023-05-10T14:23:13;1.08;;;0.50;;
16173;SDS011;14031;50.158;8.626;2023-05-10T14:25:40;1.23;;;0.52;;
16173;SDS011;14031;50.158;8.626;2023-05-10T14:28:07;0.60;;;0.60;;
16173;SDS011;14031;50.158;8.626;2023-05-10T14:30:34;0.50;;;0.50;;
16173;SDS011;14031;50.158;8.626;2023-05-10T14:33:03;0.50;;;0.50;;
16173;SDS011;14031;50.158;8.626;2023-05-10T14:35:29;0.90;;;0.90;;
16173;SDS011;14031;50.158;8.626;2023-05-10T14:37:57;1.10;;;1.00;;
16173;SDS011;14031;50.158;8.626;2023-05-10T14:40:23;2.00;;;0.80;;
16173;SDS011;14031;50.158;8.626;2023-05-10T14:42:51;2.17;;;0.80;;
16173;SDS011;14031;50.158;8.626;2023-05-10T14:45:18;0.40;;;0.40;;
16173;SDS011;14031;50.158;8.626;2023-05-10T14:47:45;0.75;;;0.40;;
16173;SDS011;14031;50.158;8.626;2023-05-10T14:50:13;0.40;;;0.40;;
16173;SDS011;14031;50.158;8.626;2023-05-10T14:52:40;0.40;;;0.40;;
16173;SDS011;14031;50.158;8.626;2023-05-10T14:55:07;0.20;;;0.20;;
16173;SDS011;14031;50.158;8.626;2023-05-10T14:57:34;0.45;;;0.45;;
16173;SDS011;14031;50.158;8.626;2023-05-10T15:00:01;2.30;;;0.80;;
16173;SDS011;14031;50.158;8.626;2023-05-10T15:02:29;1.13;;;1.13;;
16173;SDS011;14031;50.158;8.626;2023-05-10T15:04:56;1.33;;;1.33;;
16173;SDS011;14031;50.158;8.626;2023-05-10T15:07:24;0.50;;;0.50;;
16173;SDS011;14031;50.158;8.626;2023-05-10T15:09:51;0.65;;;0.40;;
16173;SDS011;14031;50.158;8.626;2023-05-10T15:12:20;5.13;;;0.77;;
16173;SDS011;14031;50.158;8.626;2023-05-10T15:14:47;0.90;;;0.40;;